Time;durP1;ratioP1;P1;durP2;ratioP2;P2;SDS_P1;SDS_P2;PMS_P1;PMS_P2;Temp;Humidity;BMP_temperature;BMP_pressure;BME280_temperature;BME280_humidity;BME280_pressure;Samples;Min_cycle;Max_cycle;Signal;HPM_P1;HPM_P2
2023/10/14 00:01:07;;;;;;;;;;;;;;;;;;6310993;28;20282;-90
2023/10/14 00:04:09;;;;;;;;;;;;;;;;;;6302386;28;20007;-90
2023/10/14 00:07:11;;;;;;;;;;;;;;;;;;6311751;28;19907;-90
2023/10/14 00:10:12;;;;;;;;;;;;;;;;;;6307139;28;19919;-90
2023/10/14 00:13:16;;;;;;;;;;;;;;;;;;6313779;28;20374;-89
2023/10/14 00:19:29;;;;;;;;;;;;;;;;;;6329013;28;19962;-89
2023/10/14 00:22:30;;;;;;;;;;;;;;;;;;6299512;28;19912;-90
2023/10/14 00:25:32;;;;;;;;;;;;;;;;;;6308836;28;20293;-90
2023/10/14 00:28:32;;;;;;;;;;;;;;;;;;6307302;28;20345;-90
2023/10/14 00:31:34;;;;;;;;;;;;;;;;;;6310108;28;19912;-90
2023/10/14 00:34:34;;;;;;;;;;;;;;;;;;6315397;28;19921;-90
2023/10/14 00:37:35;;;;;;;;;;;;;;;;;;6319473;28;20536;-90
2023/10/14 00:40:37;;;;;;;;;;;;;;;;;;6323091;28;19911;-89
2023/10/14 00:43:39;;;;;;;;;;;;;;;;;;6326737;28;20574;-90
2023/10/14 00:46:42;;;;;;;;;;;;;;;;;;6311604;28;20358;-89
2023/10/14 00:49:42;;;;;;;;;;;;;;;;;;6338167;28;19998;-90
2023/10/14 00:52:44;;;;;;;;;;;;;;;;;;6309212;28;19916;-89
2023/10/14 00:58:50;;;;;;;;;;;;;;;;;;6323149;28;19946;-89
2023/10/14 01:01:55;;;;;;;;;;;;;;;;;;6346437;28;19916;-89
2023/10/14 01:04:56;;;;;;;;;;;;;;;;;;6321081;28;20266;-89
2023/10/14 01:07:58;;;;;;;;;;;;;;;;;;6317881;28;20008;-89
2023/10/14 01:10:59;;;;;;;;;;;;;;;;;;6309132;28;19919;-89
2023/10/14 01:14:06;;;;;;;;;;;;;;;;;;6315249;28;19912;-89
2023/10/14 01:17:06;;;;;;;;;;;;;;;;;;6310571;28;19916;-89
2023/10/14 01:23:17;;;;;;;;;;;;;;;;;;6330487;28;19926;-89
2023/10/14 01:26:17;;;;;;;;;;;;;;;;;;6312908;28;19912;-89
2023/10/14 01:29:21;;;;;;;;;;;;;;;;;;6308779;28;19966;-89
2023/10/14 01:35:54;;;;;;;;;;;;;;;;;;6321675;27;20404;-89
2023/10/14 01:38:58;;;;;;;;;;;;;;;;;;6314216;28;19916;-89
2023/10/14 01:41:58;;;;;;;;;;;;;;;;;;6321019;28;19912;-89
2023/10/14 01:44:59;;;;;;;;;;;;;;;;;;6320934;28;19916;-89
2023/10/14 01:51:11;;;;;;;;;;;;;;;;;;6329788;28;19911;-90
2023/10/14 01:54:12;;;;;;;;;;;;;;;;;;6324341;28;19957;-89
2023/10/14 01:57:17;;;;;;;;;;;;;;;;;;6307097;28;20281;-89
2023/10/14 02:00:28;;;;;;;;;;;;;;;;;;6317026;28;19926;-89
2023/10/14 02:03:33;;;;;;;;;;;;;;;;;;6316430;28;20013;-89
2023/10/14 02:06:35;;;;;;;;;;;;;;;;;;6317612;28;22170;-89
2023/10/14 02:09:36;;;;;;;;;;;;;;;;;;6317151;28;19980;-89
2023/10/14 02:12:36;;;;;;;;;;;;;;;;;;6311679;28;19915;-89
2023/10/14 02:15:37;;;;;;;;;;;;;;;;;;6330676;28;19959;-89
2023/10/14 02:18:38;;;;;;;;;;;;;;;;;;6338260;28;19916;-89
2023/10/14 02:21:42;;;;;;;;;;;;;;;;;;6316057;28;19912;-90
2023/10/14 02:24:42;;;;;;;;;;;;;;;;;;6306838;28;20722;-88
2023/10/14 02:27:45;;;;;;;;;;;;;;;;;;6327062;28;19916;-89
2023/10/14 02:30:51;;;;;;;;;;;;;;;;;;6317914;28;19961;-89
2023/10/14 02:33:51;;;;;;;;;;;;;;;;;;6332053;28;20444;-89
2023/10/14 02:36:51;;;;;;;;;;;;;;;;;;6315287;28;19920;-89
2023/10/14 02:39:51;;;;;;;;;;;;;;;;;;6302560;28;19960;-88
2023/10/14 02:42:57;;;;;;;;;;;;;;;;;;6306945;28;20280;-89
2023/10/14 02:46:00;;;;;;;;;;;;;;;;;;6315755;28;20316;-89
2023/10/14 02:49:06;;;;;;;;;;;;;;;;;;6336184;28;20437;-89
2023/10/14 02:52:17;;;;;;;;;;;;;;;;;;6325267;28;19916;-90
2023/10/14 02:55:22;;;;;;;;;;;;;;;;;;6326424;28;20603;-90
2023/10/14 02:58:22;;;;;;;;;;;;;;;;;;6318783;28;20007;-90
2023/10/14 03:01:31;;;;;;;;;;;;;;;;;;6311203;28;19918;-90
2023/10/14 03:04:38;;;;;;;;;;;;;;;;;;6329918;28;19943;-90
2023/10/14 03:07:50;;;;;;;;;;;;;;;;;;6322305;28;20282;-90
2023/10/14 03:10:59;;;;;;;;;;;;;;;;;;6301876;28;19912;-90
2023/10/14 03:13:59;;;;;;;;;;;;;;;;;;6301990;28;19912;-90
2023/10/14 03:16:59;;;;;;;;;;;;;;;;;;6307647;28;20302;-89
2023/10/14 03:20:09;;;;;;;;;;;;;;;;;;6314118;28;20313;-89
2023/10/14 03:23:18;;;;;;;;;;;;;;;;;;6334615;28;19916;-90
2023/10/14 03:26:20;;;;;;;;;;;;;;;;;;6323324;28;20464;-89
2023/10/14 03:29:23;;;;;;;;;;;;;;;;;;6312343;28;19916;-89
2023/10/14 03:32:32;;;;;;;;;;;;;;;;;;6324571;28;20010;-90
2023/10/14 03:35:32;;;;;;;;;;;;;;;;;;6333787;27;19950;-90
2023/10/14 03:41:42;;;;;;;;;;;;;;;;;;6333693;28;19908;-89
2023/10/14 03:44:42;;;;;;;;;;;;;;;;;;6336750;28;20328;-90
2023/10/14 03:47:42;;;;;;;;;;;;;;;;;;6307368;28;19961;-89
2023/10/14 03:50:46;;;;;;;;;;;;;;;;;;6313643;28;19907;-89
2023/10/14 03:53:46;;;;;;;;;;;;;;;;;;6318138;28;19947;-89
2023/10/14 03:56:47;;;;;;;;;;;;;;;;;;6310414;28;19923;-89
2023/10/14 03:59:48;;;;;;;;;;;;;;;;;;6309820;28;19964;-90
2023/10/14 04:02:48;;;;;;;;;;;;;;;;;;6314935;28;19919;-89
2023/10/14 04:05:52;;;;;;;;;;;;;;;;;;6300063;28;19920;-89
2023/10/14 04:08:54;;;;;;;;;;;;;;;;;;6317358;28;20376;-89
2023/10/14 04:11:59;;;;;;;;;;;;;;;;;;6304682;28;20038;-89
2023/10/14 04:15:06;;;;;;;;;;;;;;;;;;6312456;28;20019;-89
2023/10/14 04:18:12;;;;;;;;;;;;;;;;;;6311060;28;20373;-89
2023/10/14 04:21:19;;;;;;;;;;;;;;;;;;6317653;28;20281;-89
2023/10/14 04:33:44;;;;;;;;;;;;;;;;;;6319177;28;20033;-89
2023/10/14 04:36:54;;;;;;;;;;;;;;;;;;6334633;28;19911;-88
2023/10/14 04:40:15;;;;;;;;;;;;;;;;;;6317392;28;19914;-89
2023/10/14 04:46:45;;;;;;;;;;;;;;;;;;6318676;28;19916;-88
2023/10/14 04:49:51;;;;;;;;;;;;;;;;;;6305547;28;19912;-88
2023/10/14 04:52:51;;;;;;;;;;;;;;;;;;6301440;28;20385;-88
2023/10/14 04:55:51;;;;;;;;;;;;;;;;;;6317452;28;19965;-88
2023/10/14 04:58:52;;;;;;;;;;;;;;;;;;6305068;28;19928;-88
2023/10/14 05:01:55;;;;;;;;;;;;;;;;;;6340088;28;19915;-88
2023/10/14 05:04:59;;;;;;;;;;;;;;;;;;6305016;28;19958;-88
2023/10/14 05:07:59;;;;;;;;;;;;;;;;;;6313115;28;19908;-89
2023/10/14 05:11:00;;;;;;;;;;;;;;;;;;6319004;28;20328;-88
2023/10/14 05:14:10;;;;;;;;;;;;;;;;;;6335061;28;20484;-88
2023/10/14 05:20:19;;;;;;;;;;;;;;;;;;6324067;28;19916;-88
2023/10/14 05:23:30;;;;;;;;;;;;;;;;;;6330137;28;19912;-88
2023/10/14 05:26:35;;;;;;;;;;;;;;;;;;6319132;28;20377;-87
2023/10/14 05:29:35;;;;;;;;;;;;;;;;;;6325501;27;20382;-89
2023/10/14 05:32:36;;;;;;;;;;;;;;;;;;6319865;28;19958;-88
2023/10/14 05:35:37;;;;;;;;;;;;;;;;;;6319037;28;20030;-88
2023/10/14 05:38:39;;;;;;;;;;;;;;;;;;6321728;28;19920;-88
2023/10/14 05:41:39;;;;;;;;;;;;;;;;;;6345674;27;19911;-88
2023/10/14 05:44:46;;;;;;;;;;;;;;;;;;6321401;28;19912;-88
2023/10/14 05:47:46;;;;;;;;;;;;;;;;;;6341076;28;19957;-88
2023/10/14 05:50:49;;;;;;;;;;;;;;;;;;6335686;28;19916;-88
2023/10/14 05:53:50;;;;;;;;;;;;;;;;;;6315098;28;19964;-88
2023/10/14 05:56:52;;;;;;;;;;;;;;;;;;6317255;28;20217;-88
2023/10/14 05:59:52;;;;;;;;;;;;;;;;;;6293615;28;19924;-88
2023/10/14 06:02:52;;;;;;;;;;;;;;;;;;6293199;28;20007;-87
2023/10/14 06:05:52;;;;;;;;;;;;;;;;;;6291714;28;19917;-88
2023/10/14 06:08:53;;;;;;;;;;;;;;;;;;6285213;28;19931;-87
2023/10/14 06:11:53;;;;;;;;;;;;;;;;;;6294905;28;19912;-87
2023/10/14 06:14:53;;;;;;;;;;;;;;;;;;6287982;28;19951;-88
2023/10/14 06:17:57;;;;;;;;;;;;;;;;;;6286747;28;20003;-88
2023/10/14 06:20:59;;;;;;;;;;;;;;;;;;6294820;28;20413;-88
2023/10/14 06:24:00;;;;;;;;;;;;;;;;;;6287098;28;19912;-88
2023/10/14 06:27:45;;;;;;;;;;;;;;;;;;6283666;28;19912;-88
2023/10/14 06:30:24;;;;;;;;;;;;;;;;;;6303020;28;20041;-88
2023/10/14 06:33:26;;;;;;;;;;;;;;;;;;6286274;28;20384;-88
2023/10/14 06:36:29;;;;;;;;;;;;;;;;;;6293754;28;19912;-89
2023/10/14 06:39:39;;;;;;;;;;;;;;;;;;6288699;28;19923;-88
2023/10/14 06:42:48;;;;;;;;;;;;;;;;;;6287291;28;20286;-88
2023/10/14 06:45:51;;;;;;;;;;;;;;;;;;6296894;28;19912;-88
2023/10/14 06:48:55;;;;;;;;;;;;;;;;;;6289920;28;20385;-88
2023/10/14 06:51:55;;;;;;;;;;;;;;;;;;6291501;28;20456;-88
2023/10/14 06:54:55;;;;;;;;;;;;;;;;;;6296532;28;19911;-88
2023/10/14 06:57:55;;;;;;;;;;;;;;;;;;6286619;28;19942;-88
2023/10/14 07:00:55;;;;;;;;;;;;;;;;;;6311641;27;19927;-89
2023/10/14 07:03:56;;;;;;;;;;;;;;;;;;6317666;28;19912;-88
2023/10/14 07:06:58;;;;;;;;;;;;;;;;;;6310214;28;20274;-89
2023/10/14 07:10:04;;;;;;;;;;;;;;;;;;6328023;28;20640;-90
2023/10/14 07:13:05;;;;;;;;;;;;;;;;;;6313309;28;20649;-89
2023/10/14 07:16:06;;;;;;;;;;;;;;;;;;6319223;28;20003;-89
2023/10/14 07:19:06;;;;;;;;;;;;;;;;;;6306195;28;19915;-89
2023/10/14 07:22:07;;;;;;;;;;;;;;;;;;6310730;28;20018;-90
2023/10/14 07:25:09;;;;;;;;;;;;;;;;;;6312199;28;19915;-90
2023/10/14 07:28:16;;;;;;;;;;;;;;;;;;6304970;28;19916;-91
2023/10/14 07:31:17;;;;;;;;;;;;;;;;;;6312648;28;19955;-91
2023/10/14 07:34:17;;;;;;;;;;;;;;;;;;6312924;28;19922;-91
2023/10/14 07:37:17;;;;;;;;;;;;;;;;;;6307661;28;19974;-91
2023/10/14 07:40:23;;;;;;;;;;;;;;;;;;6307963;28;19926;-91
2023/10/14 07:43:26;;;;;;;;;;;;;;;;;;6325831;28;20326;-91
2023/10/14 07:46:29;;;;;;;;;;;;;;;;;;6318312;28;20030;-91
2023/10/14 07:49:29;;;;;;;;;;;;;;;;;;6306982;28;19916;-91
2023/10/14 07:52:31;;;;;;;;;;;;;;;;;;6310725;27;19908;-92
2023/10/14 07:55:35;;;;;;;;;;;;;;;;;;6321204;28;19945;-91
2023/10/14 07:58:36;;;;;;;;;;;;;;;;;;6314860;28;20393;-90
2023/10/14 08:01:38;;;;;;;;;;;;;;;;;;6322880;28;19915;-90
2023/10/14 08:04:38;;;;;;;;;;;;;;;;;;6311903;28;19931;-90
2023/10/14 08:07:46;;;;;;;;;;;;;;;;;;6309752;28;19907;-90
2023/10/14 08:10:46;;;;;;;;;;;;;;;;;;6306618;28;19916;-90
2023/10/14 08:13:46;;;;;;;;;;;;;;;;;;6306181;28;19919;-90
2023/10/14 08:16:47;;;;;;;;;;;;;;;;;;6312624;28;20678;-91
2023/10/14 08:19:47;;;;;;;;;;;;;;;;;;6306714;28;20270;-90
2023/10/14 08:22:47;;;;;;;;;;;;;;;;;;6317350;28;20480;-90
2023/10/14 08:26:13;;;;;;;;;;;;;;;;;;6322196;28;19986;-88
2023/10/14 08:29:08;;;;;;;;;;;;;;;;;;6334734;28;20402;-91
2023/10/14 08:32:09;;;;;;;;;;;;;;;;;;6313797;28;19918;-91
2023/10/14 08:35:15;;;;;;;;;;;;;;;;;;6337954;28;19999;-90
2023/10/14 08:38:22;;;;;;;;;;;;;;;;;;6310102;28;19923;-90
2023/10/14 08:41:22;;;;;;;;;;;;;;;;;;6312275;28;19912;-91
2023/10/14 08:44:22;;;;;;;;;;;;;;;;;;6317987;28;19915;-90
2023/10/14 08:47:23;;;;;;;;;;;;;;;;;;6308942;28;19911;-90
2023/10/14 08:50:29;;;;;;;;;;;;;;;;;;6314841;28;19974;-90
2023/10/14 08:53:30;;;;;;;;;;;;;;;;;;6319965;28;19909;-91
2023/10/14 08:56:30;;;;;;;;;;;;;;;;;;6313383;28;19993;-91
2023/10/14 08:59:30;;;;;;;;;;;;;;;;;;6316424;28;20049;-90
2023/10/14 09:02:30;;;;;;;;;;;;;;;;;;6323850;28;20328;-91
2023/10/14 09:05:31;;;;;;;;;;;;;;;;;;6324557;28;19961;-90
2023/10/14 09:08:32;;;;;;;;;;;;;;;;;;6312206;28;20031;-90
2023/10/14 09:11:36;;;;;;;;;;;;;;;;;;6317187;28;20084;-90
2023/10/14 09:14:36;;;;;;;;;;;;;;;;;;6314029;28;19915;-90
2023/10/14 09:17:36;;;;;;;;;;;;;;;;;;6311851;28;19916;-90
2023/10/14 09:20:37;;;;;;;;;;;;;;;;;;6316008;28;19912;-91
2023/10/14 09:23:40;;;;;;;;;;;;;;;;;;6321766;28;19912;-91
2023/10/14 09:26:43;;;;;;;;;;;;;;;;;;6326060;28;19920;-90
2023/10/14 09:29:43;;;;;;;;;;;;;;;;;;6339942;27;20392;-90
2023/10/14 09:32:43;;;;;;;;;;;;;;;;;;6330444;28;19999;-91
2023/10/14 09:35:44;;;;;;;;;;;;;;;;;;6316940;27;19919;-92
2023/10/14 09:38:44;;;;;;;;;;;;;;;;;;6308441;28;20031;-91
2023/10/14 09:41:46;;;;;;;;;;;;;;;;;;6322715;28;19912;-91
2023/10/14 09:44:46;;;;;;;;;;;;;;;;;;6319544;28;19915;-91
2023/10/14 09:47:46;;;;;;;;;;;;;;;;;;6313214;28;19916;-91
2023/10/14 09:50:47;;;;;;;;;;;;;;;;;;6324226;28;19927;-91
2023/10/14 09:53:50;;;;;;;;;;;;;;;;;;6321430;28;19916;-91
2023/10/14 09:56:50;;;;;;;;;;;;;;;;;;6305631;28;20013;-88
2023/10/14 09:59:50;;;;;;;;;;;;;;;;;;6333989;27;19920;-88
2023/10/14 10:02:51;;;;;;;;;;;;;;;;;;6339569;27;20002;-87
2023/10/14 10:05:51;;;;;;;;;;;;;;;;;;6327964;28;19908;-88
2023/10/14 10:08:52;;;;;;;;;;;;;;;;;;6339118;28;20289;-88
2023/10/14 10:11:52;;;;;;;;;;;;;;;;;;6319361;28;19918;-88
2023/10/14 10:14:52;;;;;;;;;;;;;;;;;;6324389;28;19916;-88
2023/10/14 10:17:52;;;;;;;;;;;;;;;;;;6309869;28;19943;-88
2023/10/14 10:20:58;;;;;;;;;;;;;;;;;;6337137;28;19919;-88
2023/10/14 10:23:58;;;;;;;;;;;;;;;;;;6324122;28;19912;-88
2023/10/14 10:26:59;;;;;;;;;;;;;;;;;;6340077;28;19911;-88
2023/10/14 10:29:59;;;;;;;;;;;;;;;;;;6330633;28;19916;-88
2023/10/14 10:32:59;;;;;;;;;;;;;;;;;;6330357;28;19912;-88
2023/10/14 10:36:00;;;;;;;;;;;;;;;;;;6302388;28;19921;-88
2023/10/14 10:39:00;;;;;;;;;;;;;;;;;;6339388;28;19922;-88
2023/10/14 10:42:00;;;;;;;;;;;;;;;;;;6331243;28;20326;-88
2023/10/14 10:45:00;;;;;;;;;;;;;;;;;;6339599;28;19931;-87
2023/10/14 10:48:03;;;;;;;;;;;;;;;;;;6328926;27;19911;-89
2023/10/14 10:51:03;;;;;;;;;;;;;;;;;;6330076;27;19919;-88
2023/10/14 10:54:03;;;;;;;;;;;;;;;;;;6324599;27;19919;-88
2023/10/14 10:57:03;;;;;;;;;;;;;;;;;;6337725;28;20018;-88
2023/10/14 11:00:04;;;;;;;;;;;;;;;;;;6318423;28;19972;-87
2023/10/14 11:03:15;;;;;;;;;;;;;;;;;;6341741;27;19912;-87
2023/10/14 11:06:17;;;;;;;;;;;;;;;;;;6330419;28;19907;-88
2023/10/14 11:09:17;;;;;;;;;;;;;;;;;;6311092;28;19908;-88
2023/10/14 11:12:18;;;;;;;;;;;;;;;;;;6330059;27;20374;-87
2023/10/14 11:15:18;;;;;;;;;;;;;;;;;;6324047;28;19927;-87
2023/10/14 11:18:18;;;;;;;;;;;;;;;;;;6320571;28;19935;-88
2023/10/14 11:21:18;;;;;;;;;;;;;;;;;;6330452;28;20386;-87
2023/10/14 11:24:19;;;;;;;;;;;;;;;;;;6334065;28;19912;-88
2023/10/14 11:27:20;;;;;;;;;;;;;;;;;;6313105;28;19915;-87
2023/10/14 11:30:21;;;;;;;;;;;;;;;;;;6325588;28;19916;-88
2023/10/14 11:33:23;;;;;;;;;;;;;;;;;;6318532;28;19947;-88
2023/10/14 11:36:23;;;;;;;;;;;;;;;;;;6334337;27;19912;-88
2023/10/14 11:39:24;;;;;;;;;;;;;;;;;;6337272;28;19922;-88
2023/10/14 11:42:24;;;;;;;;;;;;;;;;;;6334481;28;19920;-88
2023/10/14 11:45:24;;;;;;;;;;;;;;;;;;6327405;28;19915;-88
2023/10/14 11:48:24;;;;;;;;;;;;;;;;;;6330052;27;19965;-88
2023/10/14 11:51:25;;;;;;;;;;;;;;;;;;6332109;28;20303;-88
2023/10/14 11:54:25;;;;;;;;;;;;;;;;;;6346067;27;19931;-88
2023/10/14 11:57:25;;;;;;;;;;;;;;;;;;6326018;28;19950;-88
2023/10/14 12:00:25;;;;;;;;;;;;;;;;;;6332824;27;19924;-88
2023/10/14 12:03:25;;;;;;;;;;;;;;;;;;6336757;27;19994;-88
2023/10/14 12:06:27;;;;;;;;;;;;;;;;;;6326302;28;19996;-88
2023/10/14 12:09:28;;;;;;;;;;;;;;;;;;6317920;28;19922;-88
2023/10/14 12:12:28;;;;;;;;;;;;;;;;;;6324790;28;19922;-88
2023/10/14 12:15:30;;;;;;;;;;;;;;;;;;6314289;28;19951;-88
2023/10/14 12:18:30;;;;;;;;;;;;;;;;;;6324170;28;19908;-88
2023/10/14 12:21:30;;;;;;;;;;;;;;;;;;6323643;28;19908;-87
2023/10/14 12:24:32;;;;;;;;;;;;;;;;;;6324135;28;19908;-87
2023/10/14 12:27:33;;;;;;;;;;;;;;;;;;6327084;28;19923;-87
2023/10/14 12:30:43;;;;;;;;;;;;;;;;;;6329712;28;19912;-88
2023/10/14 12:33:46;;;;;;;;;;;;;;;;;;6338882;28;19927;-88
2023/10/14 12:36:46;;;;;;;;;;;;;;;;;;6317498;28;20274;-88
2023/10/14 12:39:49;;;;;;;;;;;;;;;;;;6323539;28;19923;-87
2023/10/14 12:42:49;;;;;;;;;;;;;;;;;;6331535;28;20697;-88
2023/10/14 12:45:51;;;;;;;;;;;;;;;;;;6306156;28;20007;-88
2023/10/14 12:48:51;;;;;;;;;;;;;;;;;;6316334;28;19927;-88
2023/10/14 12:51:58;;;;;;;;;;;;;;;;;;6327455;28;20625;-88
2023/10/14 12:55:13;;;;;;;;;;;;;;;;;;6319159;28;19908;-87
2023/10/14 12:58:15;;;;;;;;;;;;;;;;;;6330342;28;19924;-88
2023/10/14 13:01:20;;;;;;;;;;;;;;;;;;6343370;28;19907;-88
2023/10/14 13:04:21;;;;;;;;;;;;;;;;;;6334587;28;19912;-88
2023/10/14 13:07:21;;;;;;;;;;;;;;;;;;6341697;28;19915;-89
2023/10/14 13:10:22;;;;;;;;;;;;;;;;;;6326826;28;20358;-89
2023/10/14 13:13:23;;;;;;;;;;;;;;;;;;6322733;28;19912;-89
2023/10/14 13:16:23;;;;;;;;;;;;;;;;;;6322045;28;19927;-90
2023/10/14 13:19:23;;;;;;;;;;;;;;;;;;6324416;28;20010;-88
2023/10/14 13:22:23;;;;;;;;;;;;;;;;;;6319655;28;19962;-87
2023/10/14 13:25:24;;;;;;;;;;;;;;;;;;6305495;28;19912;-87
2023/10/14 13:28:24;;;;;;;;;;;;;;;;;;6325683;28;20699;-88
2023/10/14 13:31:24;;;;;;;;;;;;;;;;;;6330485;28;19908;-87
2023/10/14 13:34:24;;;;;;;;;;;;;;;;;;6326358;28;20453;-87
2023/10/14 13:37:25;;;;;;;;;;;;;;;;;;6316019;28;19967;-87
2023/10/14 13:40:25;;;;;;;;;;;;;;;;;;6329227;28;19958;-87
2023/10/14 13:43:25;;;;;;;;;;;;;;;;;;6310018;28;19916;-88
2023/10/14 13:46:25;;;;;;;;;;;;;;;;;;6314960;28;19912;-88
2023/10/14 13:49:25;;;;;;;;;;;;;;;;;;6337464;27;20426;-87
2023/10/14 13:52:26;;;;;;;;;;;;;;;;;;6311633;27;20376;-87
2023/10/14 13:55:26;;;;;;;;;;;;;;;;;;6343443;27;20376;-88
2023/10/14 13:58:26;;;;;;;;;;;;;;;;;;6336920;28;19999;-87
2023/10/14 14:01:28;;;;;;;;;;;;;;;;;;6330274;28;19912;-88
2023/10/14 14:04:32;;;;;;;;;;;;;;;;;;6319817;28;20052;-87
2023/10/14 14:07:36;;;;;;;;;;;;;;;;;;6329918;28;20010;-87
2023/10/14 14:10:36;;;;;;;;;;;;;;;;;;6323321;28;19922;-87
2023/10/14 14:13:42;;;;;;;;;;;;;;;;;;6316024;28;20381;-87
2023/10/14 14:16:42;;;;;;;;;;;;;;;;;;6332409;28;20403;-88
2023/10/14 14:19:42;;;;;;;;;;;;;;;;;;6309570;28;19907;-88
2023/10/14 14:22:44;;;;;;;;;;;;;;;;;;6348101;28;19929;-87
2023/10/14 14:25:44;;;;;;;;;;;;;;;;;;6341282;28;20377;-86
2023/10/14 14:28:44;;;;;;;;;;;;;;;;;;6335117;28;19918;-87
2023/10/14 14:31:44;;;;;;;;;;;;;;;;;;6341255;28;20416;-87
2023/10/14 14:34:44;;;;;;;;;;;;;;;;;;6340730;27;19908;-86
2023/10/14 14:37:45;;;;;;;;;;;;;;;;;;6334590;28;19908;-86
2023/10/14 14:40:47;;;;;;;;;;;;;;;;;;6319914;28;20410;-86
2023/10/14 14:43:47;;;;;;;;;;;;;;;;;;6335293;28;20495;-88
2023/10/14 14:46:49;;;;;;;;;;;;;;;;;;6327756;28;19916;-86
2023/10/14 14:49:50;;;;;;;;;;;;;;;;;;6334636;27;20282;-87
2023/10/14 14:52:50;;;;;;;;;;;;;;;;;;6325772;27;19912;-86
2023/10/14 14:55:50;;;;;;;;;;;;;;;;;;6316740;28;20330;-86
2023/10/14 14:58:51;;;;;;;;;;;;;;;;;;6332535;28;19969;-87
2023/10/14 15:01:51;;;;;;;;;;;;;;;;;;6342296;27;19938;-87
2023/10/14 15:04:51;;;;;;;;;;;;;;;;;;6316935;28;19912;-87
2023/10/14 15:07:52;;;;;;;;;;;;;;;;;;6315914;28;19915;-86
2023/10/14 15:10:54;;;;;;;;;;;;;;;;;;6315461;28;19912;-86
2023/10/14 15:13:54;;;;;;;;;;;;;;;;;;6346910;28;19915;-87
2023/10/14 15:16:55;;;;;;;;;;;;;;;;;;6316666;28;19959;-86
2023/10/14 15:19:56;;;;;;;;;;;;;;;;;;6331693;28;19927;-86
2023/10/14 15:22:56;;;;;;;;;;;;;;;;;;6325853;28;19962;-87
2023/10/14 15:25:56;;;;;;;;;;;;;;;;;;6334736;28;19908;-85
2023/10/14 15:28:57;;;;;;;;;;;;;;;;;;6323910;28;19916;-86
2023/10/14 15:31:57;;;;;;;;;;;;;;;;;;6331836;28;20339;-87
2023/10/14 15:34:57;;;;;;;;;;;;;;;;;;6341386;27;19942;-87
2023/10/14 15:37:57;;;;;;;;;;;;;;;;;;6320073;28;19908;-87
2023/10/14 15:40:57;;;;;;;;;;;;;;;;;;6322294;28;19915;-87
2023/10/14 15:43:57;;;;;;;;;;;;;;;;;;6323745;28;19908;-87
2023/10/14 15:46:59;;;;;;;;;;;;;;;;;;6316736;27;19908;-86
2023/10/14 15:50:00;;;;;;;;;;;;;;;;;;6331036;27;19912;-88
2023/10/14 15:53:03;;;;;;;;;;;;;;;;;;6338762;27;19911;-87
2023/10/14 15:56:03;;;;;;;;;;;;;;;;;;6323048;28;19908;-87
2023/10/14 15:59:03;;;;;;;;;;;;;;;;;;6326910;28;19963;-87
2023/10/14 16:02:03;;;;;;;;;;;;;;;;;;6308544;28;19914;-87
2023/10/14 16:05:09;;;;;;;;;;;;;;;;;;6309966;28;19945;-87
2023/10/14 16:08:16;;;;;;;;;;;;;;;;;;6341618;28;19937;-87
2023/10/14 16:11:16;;;;;;;;;;;;;;;;;;6303711;28;19916;-87
2023/10/14 16:14:16;;;;;;;;;;;;;;;;;;6317669;28;20017;-87
2023/10/14 16:17:17;;;;;;;;;;;;;;;;;;6307501;28;19947;-87
2023/10/14 16:20:17;;;;;;;;;;;;;;;;;;6309040;28;20415;-87
2023/10/14 16:23:17;;;;;;;;;;;;;;;;;;6304375;28;19954;-87
2023/10/14 16:26:18;;;;;;;;;;;;;;;;;;6320173;28;19908;-87
2023/10/14 16:29:18;;;;;;;;;;;;;;;;;;6315440;28;20370;-87
2023/10/14 16:32:18;;;;;;;;;;;;;;;;;;6303033;28;20315;-87
2023/10/14 16:35:18;;;;;;;;;;;;;;;;;;6336872;28;19908;-87
2023/10/14 16:38:23;;;;;;;;;;;;;;;;;;6324808;28;20278;-87
2023/10/14 16:41:23;;;;;;;;;;;;;;;;;;6331581;28;19908;-87
2023/10/14 16:44:23;;;;;;;;;;;;;;;;;;6317023;28;19919;-87
2023/10/14 16:47:24;;;;;;;;;;;;;;;;;;6342118;28;20349;-86
2023/10/14 16:50:24;;;;;;;;;;;;;;;;;;6323668;28;19934;-84
2023/10/14 16:53:24;;;;;;;;;;;;;;;;;;6317438;28;19912;-85
2023/10/14 16:56:27;;;;;;;;;;;;;;;;;;6328351;28;20456;-85
2023/10/14 16:59:30;;;;;;;;;;;;;;;;;;6333202;28;19920;-86
2023/10/14 17:02:30;;;;;;;;;;;;;;;;;;6315075;28;20396;-86
2023/10/14 17:05:30;;;;;;;;;;;;;;;;;;6330512;28;19959;-86
2023/10/14 17:08:31;;;;;;;;;;;;;;;;;;6335025;28;19965;-85
2023/10/14 17:11:31;;;;;;;;;;;;;;;;;;6319092;28;20007;-86
2023/10/14 17:14:32;;;;;;;;;;;;;;;;;;6312606;28;19912;-86
2023/10/14 17:17:36;;;;;;;;;;;;;;;;;;6310387;28;19915;-85
2023/10/14 17:20:39;;;;;;;;;;;;;;;;;;6310170;28;20014;-86
2023/10/14 17:23:39;;;;;;;;;;;;;;;;;;6323917;28;19912;-85
2023/10/14 17:26:39;;;;;;;;;;;;;;;;;;6331740;27;19918;-85
2023/10/14 17:29:39;;;;;;;;;;;;;;;;;;6333914;27;19916;-86
2023/10/14 17:32:39;;;;;;;;;;;;;;;;;;6331306;28;19908;-86
2023/10/14 17:35:42;;;;;;;;;;;;;;;;;;6322228;27;19918;-86
2023/10/14 17:38:43;;;;;;;;;;;;;;;;;;6338010;28;20405;-87
2023/10/14 17:41:45;;;;;;;;;;;;;;;;;;6326900;28;19916;-86
2023/10/14 17:44:45;;;;;;;;;;;;;;;;;;6326375;28;19911;-85
2023/10/14 17:47:45;;;;;;;;;;;;;;;;;;6322414;27;19923;-86
2023/10/14 17:50:47;;;;;;;;;;;;;;;;;;6323118;28;20192;-86
2023/10/14 17:53:48;;;;;;;;;;;;;;;;;;6320942;27;20540;-86
2023/10/14 17:56:49;;;;;;;;;;;;;;;;;;6324406;28;19908;-87
2023/10/14 17:59:49;;;;;;;;;;;;;;;;;;6336085;28;20273;-87
2023/10/14 18:02:49;;;;;;;;;;;;;;;;;;6335370;27;20399;-87
2023/10/14 18:05:50;;;;;;;;;;;;;;;;;;6308736;28;19960;-85
2023/10/14 18:08:52;;;;;;;;;;;;;;;;;;6332308;28;20381;-85
2023/10/14 18:11:52;;;;;;;;;;;;;;;;;;6341268;28;20602;-85
2023/10/14 18:14:54;;;;;;;;;;;;;;;;;;6308785;28;19920;-84
2023/10/14 18:17:55;;;;;;;;;;;;;;;;;;6329919;28;19912;-84
2023/10/14 18:20:55;;;;;;;;;;;;;;;;;;6329305;28;20474;-84
2023/10/14 18:23:56;;;;;;;;;;;;;;;;;;6307067;28;19935;-85
2023/10/14 18:26:56;;;;;;;;;;;;;;;;;;6308872;28;19998;-85
2023/10/14 18:29:59;;;;;;;;;;;;;;;;;;6317380;28;19927;-84
2023/10/14 18:33:01;;;;;;;;;;;;;;;;;;6336638;28;20357;-85
2023/10/14 18:36:01;;;;;;;;;;;;;;;;;;6332888;27;20270;-84
2023/10/14 18:39:02;;;;;;;;;;;;;;;;;;6334611;28;19915;-85
2023/10/14 18:42:02;;;;;;;;;;;;;;;;;;6324204;28;19920;-85
2023/10/14 18:45:04;;;;;;;;;;;;;;;;;;6324424;28;19950;-84
2023/10/14 18:48:07;;;;;;;;;;;;;;;;;;6331948;27;20415;-83
2023/10/14 18:51:08;;;;;;;;;;;;;;;;;;6316189;28;19945;-85
2023/10/14 18:54:08;;;;;;;;;;;;;;;;;;6327179;27;20396;-85
2023/10/14 18:57:10;;;;;;;;;;;;;;;;;;6303900;28;19961;-86
2023/10/14 19:00:10;;;;;;;;;;;;;;;;;;6302920;28;19931;-86
2023/10/14 19:03:10;;;;;;;;;;;;;;;;;;6315206;28;20374;-85
2023/10/14 19:06:10;;;;;;;;;;;;;;;;;;6303330;28;19965;-85
2023/10/14 19:09:11;;;;;;;;;;;;;;;;;;6308058;28;20010;-85
2023/10/14 19:12:11;;;;;;;;;;;;;;;;;;6313222;28;19912;-85
2023/10/14 19:15:11;;;;;;;;;;;;;;;;;;6315459;28;19942;-85
2023/10/14 19:18:13;;;;;;;;;;;;;;;;;;6339312;28;19999;-85
2023/10/14 19:21:13;;;;;;;;;;;;;;;;;;6335077;28;19912;-84
2023/10/14 19:24:13;;;;;;;;;;;;;;;;;;6322692;28;20014;-84
2023/10/14 19:27:13;;;;;;;;;;;;;;;;;;6330216;28;20010;-84
2023/10/14 19:30:14;;;;;;;;;;;;;;;;;;6316322;28;19966;-84
2023/10/14 19:33:16;;;;;;;;;;;;;;;;;;6335798;28;20416;-84
2023/10/14 19:36:16;;;;;;;;;;;;;;;;;;6327017;27;19961;-84
2023/10/14 19:39:16;;;;;;;;;;;;;;;;;;6301914;28;19916;-84
2023/10/14 19:42:16;;;;;;;;;;;;;;;;;;6312465;28;19912;-84
2023/10/14 19:45:16;;;;;;;;;;;;;;;;;;6303961;28;19912;-84
2023/10/14 19:48:16;;;;;;;;;;;;;;;;;;6309869;28;20452;-84
2023/10/14 19:51:17;;;;;;;;;;;;;;;;;;6330466;28;20382;-84
2023/10/14 19:54:17;;;;;;;;;;;;;;;;;;6333527;27;20365;-84
2023/10/14 19:57:17;;;;;;;;;;;;;;;;;;6304990;28;19922;-84
2023/10/14 20:00:21;;;;;;;;;;;;;;;;;;6323921;27;19923;-84
2023/10/14 20:03:21;;;;;;;;;;;;;;;;;;6309624;28;19916;-84
2023/10/14 20:06:23;;;;;;;;;;;;;;;;;;6330195;27;19938;-84
2023/10/14 20:09:27;;;;;;;;;;;;;;;;;;6322515;28;19968;-85
2023/10/14 20:12:28;;;;;;;;;;;;;;;;;;6317222;27;19923;-84
2023/10/14 20:15:29;;;;;;;;;;;;;;;;;;6320596;28;19912;-84
2023/10/14 20:18:29;;;;;;;;;;;;;;;;;;6323990;28;19912;-84
2023/10/14 20:21:29;;;;;;;;;;;;;;;;;;6324347;28;19947;-84
2023/10/14 20:24:29;;;;;;;;;;;;;;;;;;6338175;28;19916;-84
2023/10/14 20:27:29;;;;;;;;;;;;;;;;;;6329706;28;20365;-84
2023/10/14 20:30:30;;;;;;;;;;;;;;;;;;6340752;28;19907;-84
2023/10/14 20:33:30;;;;;;;;;;;;;;;;;;6334195;28;20392;-84
2023/10/14 20:36:30;;;;;;;;;;;;;;;;;;6339254;28;19966;-85
2023/10/14 20:39:32;;;;;;;;;;;;;;;;;;6321474;28;20385;-84
2023/10/14 20:42:32;;;;;;;;;;;;;;;;;;6340175;28;19944;-84
2023/10/14 20:45:32;;;;;;;;;;;;;;;;;;6329838;28;20018;-85
2023/10/14 20:48:32;;;;;;;;;;;;;;;;;;6344182;28;19963;-85
2023/10/14 20:51:32;;;;;;;;;;;;;;;;;;6343101;28;19916;-85
2023/10/14 20:54:33;;;;;;;;;;;;;;;;;;6313519;28;19912;-84
2023/10/14 20:57:34;;;;;;;;;;;;;;;;;;6342044;28;20049;-85
2023/10/14 21:00:34;;;;;;;;;;;;;;;;;;6335173;28;19924;-85
2023/10/14 21:03:35;;;;;;;;;;;;;;;;;;6343425;28;19915;-85
2023/10/14 21:06:38;;;;;;;;;;;;;;;;;;6330465;27;19938;-85
2023/10/14 21:09:38;;;;;;;;;;;;;;;;;;6319461;28;19916;-85
2023/10/14 21:12:38;;;;;;;;;;;;;;;;;;6338225;28;20006;-85
2023/10/14 21:15:38;;;;;;;;;;;;;;;;;;6334688;27;19912;-85